sensor_id;sensor_type;location;lat;lon;timestamp;pressure;altitude;pressure_sealevel;temperature;humidity
11648;BME280;5880;52.342;9.662;2022-11-20T00:01:25;100673.69;;;2.93;58.99
11648;BME280;5880;52.342;9.662;2022-11-20T00:03:54;100691.22;;;2.98;59.22
11648;BME280;5880;52.342;9.662;2022-11-20T00:06:21;100692.22;;;2.96;58.92
11648;BME280;5880;52.342;9.662;2022-11-20T00:08:48;100686.16;;;2.94;58.65
11648;BME280;5880;52.342;9.662;2022-11-20T00:11:20;100683.44;;;2.94;58.71
11648;BME280;5880;52.342;9.662;2022-11-20T00:13:49;100691.56;;;2.94;58.91
11648;BME280;5880;52.342;9.662;2022-11-20T00:16:19;100689.06;;;2.93;58.74
11648;BME280;5880;52.342;9.662;2022-11-20T00:18:45;100687.56;;;2.90;58.87
11648;BME280;5880;52.342;9.662;2022-11-20T00:21:18;100684.84;;;2.90;59.20
11648;BME280;5880;52.342;9.662;2022-11-20T00:23:44;100683.34;;;2.88;58.51
11648;BME280;5880;52.342;9.662;2022-11-20T00:26:13;100673.56;;;2.87;58.44
11648;BME280;5880;52.342;9.662;2022-11-20T00:28:41;100682.69;;;2.86;58.62
11648;BME280;5880;52.342;9.662;2022-11-20T00:31:15;100676.28;;;2.87;58.64
11648;BME280;5880;52.342;9.662;2022-11-20T00:33:43;100682.88;;;2.84;58.42
11648;BME280;5880;52.342;9.662;2022-11-20T00:36:24;100678.47;;;2.83;58.84
11648;BME280;5880;52.342;9.662;2022-11-20T00:38:55;100668.03;;;2.80;58.86
11648;BME280;5880;52.342;9.662;2022-11-20T00:41:22;100670.94;;;2.79;58.91
11648;BME280;5880;52.342;9.662;2022-11-20T00:43:48;100676.34;;;2.79;58.54
11648;BME280;5880;52.342;9.662;2022-11-20T00:46:17;100664.69;;;2.78;58.75
11648;BME280;5880;52.342;9.662;2022-11-20T00:48:44;100668.41;;;2.77;58.25
11648;BME280;5880;52.342;9.662;2022-11-20T00:51:13;100661.53;;;2.74;58.62
11648;BME280;5880;52.342;9.662;2022-11-20T00:53:39;100667.75;;;2.75;58.23
11648;BME280;5880;52.342;9.662;2022-11-20T00:56:10;100670.81;;;2.72;58.53
11648;BME280;5880;52.342;9.662;2022-11-20T00:58:42;100672.66;;;2.71;58.48
11648;BME280;5880;52.342;9.662;2022-11-20T01:01:17;100668.28;;;2.70;58.12
11648;BME280;5880;52.342;9.662;2022-11-20T01:03:50;100669.50;;;2.68;58.56
11648;BME280;5880;52.342;9.662;2022-11-20T01:08:47;100673.41;;;2.65;59.04
11648;BME280;5880;52.342;9.662;2022-11-20T01:11:20;100677.97;;;2.65;58.93
11648;BME280;5880;52.342;9.662;2022-11-20T01:13:48;100674.41;;;2.64;58.81
11648;BME280;5880;52.342;9.662;2022-11-20T01:16:23;100675.25;;;2.65;58.94
11648;BME280;5880;52.342;9.662;2022-11-20T01:18:53;100661.09;;;2.63;58.64
11648;BME280;5880;52.342;9.662;2022-11-20T01:21:31;100669.88;;;2.65;58.91
11648;BME280;5880;52.342;9.662;2022-11-20T01:23:58;100665.66;;;2.62;58.87
11648;BME280;5880;52.342;9.662;2022-11-20T01:26:27;100674.59;;;2.63;58.68
11648;BME280;5880;52.342;9.662;2022-11-20T01:28:54;100662.09;;;2.62;58.76
11648;BME280;5880;52.342;9.662;2022-11-20T01:31:27;100654.88;;;2.62;58.60
11648;BME280;5880;52.342;9.662;2022-11-20T01:33:57;100662.09;;;2.62;59.10
11648;BME280;5880;52.342;9.662;2022-11-20T01:36:26;100649.63;;;2.61;59.12
11648;BME280;5880;52.342;9.662;2022-11-20T01:38:55;100651.31;;;2.62;59.44
11648;BME280;5880;52.342;9.662;2022-11-20T01:41:22;100662.75;;;2.64;59.49
11648;BME280;5880;52.342;9.662;2022-11-20T01:44:11;100647.59;;;2.63;59.59
11648;BME280;5880;52.342;9.662;2022-11-20T01:49:34;100636.59;;;2.64;59.76
11648;BME280;5880;52.342;9.662;2022-11-20T01:52:49;100630.22;;;2.65;60.22
11648;BME280;5880;52.342;9.662;2022-11-20T01:55:22;100633.91;;;2.64;60.14
11648;BME280;5880;52.342;9.662;2022-11-20T01:57:49;100624.81;;;2.65;59.66
11648;BME280;5880;52.342;9.662;2022-11-20T02:00:18;100631.69;;;2.68;59.97
11648;BME280;5880;52.342;9.662;2022-11-20T02:02:57;100613.34;;;2.63;59.99
11648;BME280;5880;52.342;9.662;2022-11-20T02:05:51;100629.28;;;2.73;60.22
11648;BME280;5880;52.342;9.662;2022-11-20T02:08:21;100623.91;;;2.73;60.01
11648;BME280;5880;52.342;9.662;2022-11-20T02:10:47;100627.25;;;2.75;59.89
11648;BME280;5880;52.342;9.662;2022-11-20T02:13:13;100620.66;;;2.78;60.11
11648;BME280;5880;52.342;9.662;2022-11-20T02:15:57;100619.66;;;2.79;60.39
11648;BME280;5880;52.342;9.662;2022-11-20T02:18:23;100627.38;;;2.82;60.18
11648;BME280;5880;52.342;9.662;2022-11-20T02:20:58;100615.25;;;2.78;59.90
11648;BME280;5880;52.342;9.662;2022-11-20T02:23:32;100619.56;;;2.87;60.50
11648;BME280;5880;52.342;9.662;2022-11-20T02:26:06;100618.53;;;2.88;60.20
11648;BME280;5880;52.342;9.662;2022-11-20T02:28:33;100619.03;;;2.91;60.48
11648;BME280;5880;52.342;9.662;2022-11-20T02:30:59;100618.66;;;2.94;60.42
11648;BME280;5880;52.342;9.662;2022-11-20T02:33:24;100608.72;;;2.95;60.05
11648;BME280;5880;52.342;9.662;2022-11-20T02:35:50;100600.25;;;2.98;60.73
11648;BME280;5880;52.342;9.662;2022-11-20T02:38:16;100600.69;;;3.02;60.46
11648;BME280;5880;52.342;9.662;2022-11-20T02:40:42;100600.53;;;3.03;60.73
11648;BME280;5880;52.342;9.662;2022-11-20T02:43:08;100587.56;;;2.99;60.49
11648;BME280;5880;52.342;9.662;2022-11-20T02:45:35;100591.38;;;3.04;59.94
11648;BME280;5880;52.342;9.662;2022-11-20T02:48:00;100587.84;;;3.04;60.34
11648;BME280;5880;52.342;9.662;2022-11-20T02:50:26;100589.53;;;3.05;59.75
11648;BME280;5880;52.342;9.662;2022-11-20T02:52:52;100591.22;;;3.06;60.27
11648;BME280;5880;52.342;9.662;2022-11-20T02:55:18;100590.38;;;3.05;59.74
11648;BME280;5880;52.342;9.662;2022-11-20T02:57:43;100597.66;;;3.05;60.40
11648;BME280;5880;52.342;9.662;2022-11-20T03:00:10;100598.66;;;3.04;59.56
11648;BME280;5880;52.342;9.662;2022-11-20T03:02:36;100593.25;;;3.04;59.78
11648;BME280;5880;52.342;9.662;2022-11-20T03:05:02;100601.34;;;3.04;59.70
11648;BME280;5880;52.342;9.662;2022-11-20T03:07:28;100601.56;;;3.02;59.90
11648;BME280;5880;52.342;9.662;2022-11-20T03:09:54;100594.47;;;3.01;60.14
11648;BME280;5880;52.342;9.662;2022-11-20T03:12:19;100585.25;;;2.95;59.81
11648;BME280;5880;52.342;9.662;2022-11-20T03:14:45;100587.56;;;2.99;59.86
11648;BME280;5880;52.342;9.662;2022-11-20T03:17:10;100587.56;;;2.99;59.80
11648;BME280;5880;52.342;9.662;2022-11-20T03:19:36;100588.78;;;2.96;59.83
11648;BME280;5880;52.342;9.662;2022-11-20T03:22:02;100577.50;;;2.92;59.81
11648;BME280;5880;52.342;9.662;2022-11-20T03:24:28;100583.22;;;2.98;59.70
11648;BME280;5880;52.342;9.662;2022-11-20T03:26:54;100586.75;;;2.98;59.74
11648;BME280;5880;52.342;9.662;2022-11-20T03:29:19;100585.91;;;2.98;59.95
11648;BME280;5880;52.342;9.662;2022-11-20T03:31:45;100582.00;;;3.00;60.19
11648;BME280;5880;52.342;9.662;2022-11-20T03:34:11;100576.59;;;3.00;60.23
11648;BME280;5880;52.342;9.662;2022-11-20T03:36:43;100580.13;;;3.01;59.88
11648;BME280;5880;52.342;9.662;2022-11-20T03:39:09;100573.69;;;3.02;59.99
11648;BME280;5880;52.342;9.662;2022-11-20T03:41:41;100564.59;;;3.03;60.01
11648;BME280;5880;52.342;9.662;2022-11-20T03:44:10;100577.25;;;3.02;60.29
11648;BME280;5880;52.342;9.662;2022-11-20T03:46:36;100562.59;;;2.96;59.80
11648;BME280;5880;52.342;9.662;2022-11-20T03:49:03;100569.97;;;3.03;60.39
11648;BME280;5880;52.342;9.662;2022-11-20T03:51:35;100565.41;;;3.03;59.69
11648;BME280;5880;52.342;9.662;2022-11-20T03:54:05;100572.69;;;3.03;60.15
11648;BME280;5880;52.342;9.662;2022-11-20T03:56:35;100569.78;;;3.04;60.05
11648;BME280;5880;52.342;9.662;2022-11-20T03:59:02;100560.84;;;3.04;59.76
11648;BME280;5880;52.342;9.662;2022-11-20T04:01:32;100557.13;;;3.05;60.17
11648;BME280;5880;52.342;9.662;2022-11-20T04:03:58;100549.22;;;3.03;59.69
11648;BME280;5880;52.342;9.662;2022-11-20T04:06:33;100551.75;;;3.05;59.60
11648;BME280;5880;52.342;9.662;2022-11-20T04:08:59;100544.63;;;3.04;59.83
11648;BME280;5880;52.342;9.662;2022-11-20T04:11:30;100557.97;;;3.05;60.04
11648;BME280;5880;52.342;9.662;2022-11-20T04:14:03;100556.94;;;3.06;60.49
11648;BME280;5880;52.342;9.662;2022-11-20T04:16:33;100556.09;;;3.06;60.04
11648;BME280;5880;52.342;9.662;2022-11-20T04:19:03;100544.28;;;3.07;60.58
11648;BME280;5880;52.342;9.662;2022-11-20T04:21:29;100545.97;;;3.08;59.77
11648;BME280;5880;52.342;9.662;2022-11-20T04:23:56;100544.09;;;3.08;59.93
11648;BME280;5880;52.342;9.662;2022-11-20T04:26:24;100538.41;;;3.03;59.83
11648;BME280;5880;52.342;9.662;2022-11-20T04:28:51;100554.91;;;3.08;60.23
11648;BME280;5880;52.342;9.662;2022-11-20T04:31:24;100548.47;;;3.09;59.80
11648;BME280;5880;52.342;9.662;2022-11-20T04:33:50;100540.72;;;3.06;59.82
11648;BME280;5880;52.342;9.662;2022-11-20T04:36:25;100545.13;;;3.07;59.95
11648;BME280;5880;52.342;9.662;2022-11-20T04:38:54;100547.00;;;3.07;59.94
11648;BME280;5880;52.342;9.662;2022-11-20T04:41:22;100545.13;;;3.07;60.17
11648;BME280;5880;52.342;9.662;2022-11-20T04:43:54;100548.66;;;3.08;59.82
11648;BME280;5880;52.342;9.662;2022-11-20T04:46:25;100545.31;;;3.06;59.94
11648;BME280;5880;52.342;9.662;2022-11-20T04:48:52;100538.22;;;3.05;59.84
11648;BME280;5880;52.342;9.662;2022-11-20T04:51:18;100550.69;;;3.06;60.36
11648;BME280;5880;52.342;9.662;2022-11-20T04:53:44;100543.63;;;3.05;60.05
11648;BME280;5880;52.342;9.662;2022-11-20T04:56:12;100540.72;;;3.06;59.80
11648;BME280;5880;52.342;9.662;2022-11-20T04:58:39;100544.28;;;3.07;60.14
11648;BME280;5880;52.342;9.662;2022-11-20T05:01:14;100546.78;;;3.08;60.18
11648;BME280;5880;52.342;9.662;2022-11-20T05:03:41;100534.66;;;3.04;60.16
11648;BME280;5880;52.342;9.662;2022-11-20T05:06:08;100544.75;;;3.10;60.67
11648;BME280;5880;52.342;9.662;2022-11-20T05:08:35;100543.75;;;3.11;60.29
11648;BME280;5880;52.342;9.662;2022-11-20T05:11:03;100546.22;;;3.13;60.17
11648;BME280;5880;52.342;9.662;2022-11-20T05:13:30;100537.03;;;3.07;60.26
11648;BME280;5880;52.342;9.662;2022-11-20T05:16:05;100533.56;;;3.13;60.34
11648;BME280;5880;52.342;9.662;2022-11-20T05:18:33;100534.59;;;3.12;60.69
11648;BME280;5880;52.342;9.662;2022-11-20T05:20:59;100537.97;;;3.14;60.85
11648;BME280;5880;52.342;9.662;2022-11-20T05:23:27;100532.34;;;3.16;60.78
11648;BME280;5880;52.342;9.662;2022-11-20T05:25:54;100534.03;;;3.17;61.06
11648;BME280;5880;52.342;9.662;2022-11-20T05:28:21;100540.09;;;3.19;61.11
11648;BME280;5880;52.342;9.662;2022-11-20T05:30:47;100529.94;;;3.21;60.67
11648;BME280;5880;52.342;9.662;2022-11-20T05:33:12;100533.31;;;3.23;61.14
11648;BME280;5880;52.342;9.662;2022-11-20T05:35:38;100531.78;;;3.21;61.26
11648;BME280;5880;52.342;9.662;2022-11-20T05:38:04;100535.63;;;3.26;61.30
11648;BME280;5880;52.342;9.662;2022-11-20T05:40:30;100532.75;;;3.28;61.47
11648;BME280;5880;52.342;9.662;2022-11-20T05:42:55;100516.91;;;3.25;60.90
11648;BME280;5880;52.342;9.662;2022-11-20T05:45:21;100528.44;;;3.33;61.60
11648;BME280;5880;52.342;9.662;2022-11-20T05:47:47;100522.00;;;3.34;61.51
11648;BME280;5880;52.342;9.662;2022-11-20T05:50:14;100519.97;;;3.36;61.60
11648;BME280;5880;52.342;9.662;2022-11-20T05:52:40;100532.06;;;3.41;61.09
11648;BME280;5880;52.342;9.662;2022-11-20T05:55:07;100531.69;;;3.44;61.35
11648;BME280;5880;52.342;9.662;2022-11-20T05:57:33;100520.44;;;3.40;61.40
11648;BME280;5880;52.342;9.662;2022-11-20T05:59:58;100522.38;;;3.46;61.23
11648;BME280;5880;52.342;9.662;2022-11-20T06:02:24;100514.09;;;3.48;61.17
11648;BME280;5880;52.342;9.662;2022-11-20T06:04:50;100514.75;;;3.50;61.55
11648;BME280;5880;52.342;9.662;2022-11-20T06:07:15;100505.31;;;3.46;61.36
11648;BME280;5880;52.342;9.662;2022-11-20T06:09:41;100514.56;;;3.51;61.14
11648;BME280;5880;52.342;9.662;2022-11-20T06:12:07;100518.75;;;3.54;61.53
11648;BME280;5880;52.342;9.662;2022-11-20T06:14:33;100515.00;;;3.55;61.43
11648;BME280;5880;52.342;9.662;2022-11-20T06:16:59;100521.06;;;3.57;61.14
11648;BME280;5880;52.342;9.662;2022-11-20T06:19:25;100512.94;;;3.57;61.52
11648;BME280;5880;52.342;9.662;2022-11-20T06:21:51;100510.25;;;3.57;60.93
11648;BME280;5880;52.342;9.662;2022-11-20T06:24:17;100505.22;;;3.54;61.16
11648;BME280;5880;52.342;9.662;2022-11-20T06:26:43;100500.00;;;3.52;60.83
11648;BME280;5880;52.342;9.662;2022-11-20T06:29:09;100491.16;;;3.44;60.77
11648;BME280;5880;52.342;9.662;2022-11-20T06:31:35;100499.75;;;3.47;61.19
11648;BME280;5880;52.342;9.662;2022-11-20T06:34:04;100504.50;;;3.45;61.05
11648;BME280;5880;52.342;9.662;2022-11-20T06:36:32;100515.31;;;3.45;60.92
11648;BME280;5880;52.342;9.662;2022-11-20T06:38:59;100516.97;;;3.46;61.15
11648;BME280;5880;52.342;9.662;2022-11-20T06:41:24;100504.31;;;3.47;61.44
11648;BME280;5880;52.342;9.662;2022-11-20T06:43:51;100494.91;;;3.43;60.91
11648;BME280;5880;52.342;9.662;2022-11-20T06:46:18;100505.16;;;3.47;61.23
11648;BME280;5880;52.342;9.662;2022-11-20T06:48:46;100502.44;;;3.47;61.56
11648;BME280;5880;52.342;9.662;2022-11-20T06:51:12;100508.50;;;3.49;61.51
11648;BME280;5880;52.342;9.662;2022-11-20T06:53:39;100504.94;;;3.49;61.40
11648;BME280;5880;52.342;9.662;2022-11-20T06:56:05;100496.66;;;3.50;60.93
11648;BME280;5880;52.342;9.662;2022-11-20T06:58:33;100493.78;;;3.52;61.54
11648;BME280;5880;52.342;9.662;2022-11-20T07:01:02;100498.97;;;3.53;61.06
11648;BME280;5880;52.342;9.662;2022-11-20T07:03:28;100493.56;;;3.53;61.40
11648;BME280;5880;52.342;9.662;2022-11-20T07:05:58;100488.38;;;3.52;61.26
11648;BME280;5880;52.342;9.662;2022-11-20T07:08:24;100499.44;;;3.57;61.34
11648;BME280;5880;52.342;9.662;2022-11-20T07:10:50;100490.13;;;3.59;61.59
11648;BME280;5880;52.342;9.662;2022-11-20T07:13:16;100484.44;;;3.54;61.10
11648;BME280;5880;52.342;9.662;2022-11-20T07:15:42;100491.34;;;3.57;61.63
11648;BME280;5880;52.342;9.662;2022-11-20T07:18:08;100493.19;;;3.56;61.59
11648;BME280;5880;52.342;9.662;2022-11-20T07:20:33;100500.28;;;3.57;61.44
11648;BME280;5880;52.342;9.662;2022-11-20T07:22:59;100501.97;;;3.58;61.53
11648;BME280;5880;52.342;9.662;2022-11-20T07:25:27;100505.50;;;3.59;61.40
11648;BME280;5880;52.342;9.662;2022-11-20T07:27:59;100506.34;;;3.59;61.28
11648;BME280;5880;52.342;9.662;2022-11-20T07:30:26;100494.50;;;3.61;61.76
11648;BME280;5880;52.342;9.662;2022-11-20T07:32:53;100505.09;;;3.62;61.44
11648;BME280;5880;52.342;9.662;2022-11-20T07:35:20;100492.63;;;3.61;61.82
11648;BME280;5880;52.342;9.662;2022-11-20T07:37:46;100497.25;;;3.67;61.43
11648;BME280;5880;52.342;9.662;2022-11-20T07:40:13;100494.56;;;3.67;61.72
11648;BME280;5880;52.342;9.662;2022-11-20T07:42:39;100483.97;;;3.66;61.25
11648;BME280;5880;52.342;9.662;2022-11-20T07:45:05;100482.09;;;3.66;61.61
11648;BME280;5880;52.342;9.662;2022-11-20T07:47:37;100476.03;;;3.64;61.41
11648;BME280;5880;52.342;9.662;2022-11-20T07:50:03;100492.44;;;3.63;61.59
11648;BME280;5880;52.342;9.662;2022-11-20T07:52:29;100497.22;;;3.61;61.39
11648;BME280;5880;52.342;9.662;2022-11-20T07:54:54;100505.31;;;3.61;61.48
11648;BME280;5880;52.342;9.662;2022-11-20T07:57:20;100498.69;;;3.63;61.57
11648;BME280;5880;52.342;9.662;2022-11-20T07:59:46;100501.00;;;3.66;61.72
11648;BME280;5880;52.342;9.662;2022-11-20T08:02:11;100497.09;;;3.69;61.59
11648;BME280;5880;52.342;9.662;2022-11-20T08:04:37;100495.84;;;3.71;61.66
11648;BME280;5880;52.342;9.662;2022-11-20T08:07:03;100500.06;;;3.74;61.90
11648;BME280;5880;52.342;9.662;2022-11-20T08:09:28;100492.59;;;3.76;61.88
11648;BME280;5880;52.342;9.662;2022-11-20T08:11:54;100498.47;;;3.79;61.60
11648;BME280;5880;52.342;9.662;2022-11-20T08:14:39;100492.19;;;3.79;61.60
11648;BME280;5880;52.342;9.662;2022-11-20T08:17:04;100504.88;;;3.78;61.70
11648;BME280;5880;52.342;9.662;2022-11-20T08:19:30;100507.41;;;3.80;61.70
11648;BME280;5880;52.342;9.662;2022-11-20T08:21:56;100506.19;;;3.83;61.97
11648;BME280;5880;52.342;9.662;2022-11-20T08:24:21;100499.28;;;3.80;61.93
11648;BME280;5880;52.342;9.662;2022-11-20T08:26:47;100507.66;;;3.85;61.91
11648;BME280;5880;52.342;9.662;2022-11-20T08:29:13;100499.28;;;3.80;62.05
11648;BME280;5880;52.342;9.662;2022-11-20T08:31:38;100498.50;;;3.86;61.95
11648;BME280;5880;52.342;9.662;2022-11-20T08:34:04;100504.38;;;3.90;62.33
11648;BME280;5880;52.342;9.662;2022-11-20T08:36:33;100508.41;;;3.94;61.83
11648;BME280;5880;52.342;9.662;2022-11-20T08:39:00;100507.56;;;3.93;62.22
11648;BME280;5880;52.342;9.662;2022-11-20T08:41:25;100500.06;;;3.95;62.01
11648;BME280;5880;52.342;9.662;2022-11-20T08:43:59;100496.34;;;3.96;62.24
11648;BME280;5880;52.342;9.662;2022-11-20T08:46:31;100507.81;;;3.98;62.14
11648;BME280;5880;52.342;9.662;2022-11-20T08:48:58;100496.78;;;4.00;62.10
11648;BME280;5880;52.342;9.662;2022-11-20T08:51:24;100509.94;;;4.03;62.55
11648;BME280;5880;52.342;9.662;2022-11-20T08:53:50;100502.28;;;4.07;62.61
11648;BME280;5880;52.342;9.662;2022-11-20T08:56:16;100501.69;;;4.11;62.34
11648;BME280;5880;52.342;9.662;2022-11-20T08:58:43;100503.19;;;4.14;62.51
11648;BME280;5880;52.342;9.662;2022-11-20T09:01:09;100508.22;;;4.17;62.25
11648;BME280;5880;52.342;9.662;2022-11-20T09:03:35;100507.00;;;4.19;62.54
11648;BME280;5880;52.342;9.662;2022-11-20T09:06:06;100493.91;;;4.23;62.62
11648;BME280;5880;52.342;9.662;2022-11-20T09:08:33;100500.78;;;4.26;62.41
11648;BME280;5880;52.342;9.662;2022-11-20T09:10:59;100500.78;;;4.26;62.60
11648;BME280;5880;52.342;9.662;2022-11-20T09:13:27;100504.78;;;4.30;62.38
11648;BME280;5880;52.342;9.662;2022-11-20T09:16:08;100502.34;;;4.35;62.48
11648;BME280;5880;52.342;9.662;2022-11-20T09:18:35;100499.63;;;4.35;62.43
11648;BME280;5880;52.342;9.662;2022-11-20T09:21:10;100478.44;;;4.38;62.41
11648;BME280;5880;52.342;9.662;2022-11-20T09:23:37;100468.44;;;4.39;62.49
11648;BME280;5880;52.342;9.662;2022-11-20T09:26:10;100468.44;;;4.39;62.44
11648;BME280;5880;52.342;9.662;2022-11-20T09:28:35;100477.59;;;4.38;62.25
11648;BME280;5880;52.342;9.662;2022-11-20T09:31:11;100479.09;;;4.40;62.71
11648;BME280;5880;52.342;9.662;2022-11-20T09:33:42;100481.56;;;4.42;62.90
11648;BME280;5880;52.342;9.662;2022-11-20T09:36:08;100486.41;;;4.47;63.06
11648;BME280;5880;52.342;9.662;2022-11-20T09:38:34;100487.50;;;4.52;63.33
11648;BME280;5880;52.342;9.662;2022-11-20T09:41:04;100496.69;;;4.58;63.42
11648;BME280;5880;52.342;9.662;2022-11-20T09:44:04;100506.53;;;4.65;63.64
11648;BME280;5880;52.342;9.662;2022-11-20T09:47:08;100495.56;;;4.74;63.98
11648;BME280;5880;52.342;9.662;2022-11-20T09:55:12;100499.66;;;4.91;63.93
11648;BME280;5880;52.342;9.662;2022-11-20T09:57:44;100500.75;;;4.97;64.18
11648;BME280;5880;52.342;9.662;2022-11-20T10:00:13;100494.31;;;5.04;64.26
11648;BME280;5880;52.342;9.662;2022-11-20T10:02:53;100496.03;;;5.12;64.24
11648;BME280;5880;52.342;9.662;2022-11-20T10:05:40;100492.53;;;5.18;64.46
11648;BME280;5880;52.342;9.662;2022-11-20T10:08:40;100480.91;;;5.24;64.74
11648;BME280;5880;52.342;9.662;2022-11-20T10:14:16;100494.28;;;5.33;64.64
11648;BME280;5880;52.342;9.662;2022-11-20T10:17:23;100490.75;;;5.39;65.09
11648;BME280;5880;52.342;9.662;2022-11-20T10:20:01;100478.47;;;5.43;65.30
11648;BME280;5880;52.342;9.662;2022-11-20T10:23:03;100490.38;;;5.48;64.88
11648;BME280;5880;52.342;9.662;2022-11-20T10:25:44;100482.88;;;5.50;64.51
11648;BME280;5880;52.342;9.662;2022-11-20T10:31:03;100472.91;;;5.58;64.80
11648;BME280;5880;52.342;9.662;2022-11-20T10:33:36;100464.13;;;5.56;64.74
11648;BME280;5880;52.342;9.662;2022-11-20T10:36:28;100472.06;;;5.64;64.90
11648;BME280;5880;52.342;9.662;2022-11-20T10:39:18;100468.53;;;5.63;65.12
11648;BME280;5880;52.342;9.662;2022-11-20T10:41:51;100463.94;;;5.64;64.79
11648;BME280;5880;52.342;9.662;2022-11-20T10:44:22;100467.91;;;5.68;64.86
11648;BME280;5880;52.342;9.662;2022-11-20T10:47:16;100457.91;;;5.68;64.78
11648;BME280;5880;52.342;9.662;2022-11-20T10:49:47;100451.22;;;5.71;65.16
11648;BME280;5880;52.342;9.662;2022-11-20T10:52:35;100442.25;;;5.70;64.65
11648;BME280;5880;52.342;9.662;2022-11-20T10:55:46;100452.09;;;5.71;64.60
11648;BME280;5880;52.342;9.662;2022-11-20T10:58:25;100457.72;;;5.70;64.63
11648;BME280;5880;52.342;9.662;2022-11-20T11:01:24;100450.63;;;5.69;64.83
11648;BME280;5880;52.342;9.662;2022-11-20T11:03:53;100444.34;;;5.68;65.16
11648;BME280;5880;52.342;9.662;2022-11-20T11:06:39;100442.91;;;5.72;64.75
11648;BME280;5880;52.342;9.662;2022-11-20T11:09:20;100450.84;;;5.74;65.09
11648;BME280;5880;52.342;9.662;2022-11-20T11:11:47;100438.13;;;5.75;65.25
11648;BME280;5880;52.342;9.662;2022-11-20T11:14:15;100437.91;;;5.76;64.72
11648;BME280;5880;52.342;9.662;2022-11-20T11:16:50;100433.97;;;5.79;64.89
11648;BME280;5880;52.342;9.662;2022-11-20T11:19:16;100415.59;;;5.74;64.79
11648;BME280;5880;52.342;9.662;2022-11-20T11:21:53;100429.16;;;5.81;64.82
11648;BME280;5880;52.342;9.662;2022-11-20T11:24:28;100436.06;;;5.83;64.68
11648;BME280;5880;52.342;9.662;2022-11-20T11:27:09;100417.69;;;5.85;65.19
11648;BME280;5880;52.342;9.662;2022-11-20T11:29:36;100417.47;;;5.87;64.84
11648;BME280;5880;52.342;9.662;2022-11-20T11:34:34;100419.81;;;5.97;65.32
11648;BME280;5880;52.342;9.662;2022-11-20T11:37:01;100414.19;;;5.98;65.16
11648;BME280;5880;52.342;9.662;2022-11-20T11:39:30;100415.66;;;6.01;65.02
11648;BME280;5880;52.342;9.662;2022-11-20T11:41:58;100413.56;;;6.03;64.63
11648;BME280;5880;52.342;9.662;2022-11-20T11:44:32;100419.81;;;6.03;64.89
11648;BME280;5880;52.342;9.662;2022-11-20T11:53:03;100417.53;;;6.07;65.33
11648;BME280;5880;52.342;9.662;2022-11-20T11:55:57;100415.66;;;6.07;65.14
11648;BME280;5880;52.342;9.662;2022-11-20T11:58:50;100402.72;;;6.09;65.32
11648;BME280;5880;52.342;9.662;2022-11-20T12:04:44;100402.28;;;6.12;65.52
11648;BME280;5880;52.342;9.662;2022-11-20T12:07:35;100399.38;;;6.14;64.97
11648;BME280;5880;52.342;9.662;2022-11-20T12:10:04;100399.16;;;6.16;65.62
11648;BME280;5880;52.342;9.662;2022-11-20T12:12:43;100398.31;;;6.15;64.63
11648;BME280;5880;52.342;9.662;2022-11-20T12:15:19;100406.66;;;6.20;65.02
11648;BME280;5880;52.342;9.662;2022-11-20T12:17:48;100400.22;;;6.21;65.14
11648;BME280;5880;52.342;9.662;2022-11-20T12:20:14;100391.00;;;6.22;65.08
11648;BME280;5880;52.342;9.662;2022-11-20T12:23:04;100389.38;;;6.28;65.11
11648;BME280;5880;52.342;9.662;2022-11-20T12:25:36;100376.41;;;6.23;64.83
11648;BME280;5880;52.342;9.662;2022-11-20T12:35:10;100391.03;;;6.29;65.12
11648;BME280;5880;52.342;9.662;2022-11-20T12:54:13;100377.88;;;6.19;65.17
11648;BME280;5880;52.342;9.662;2022-11-20T13:02:41;100376.63;;;6.28;65.14
11648;BME280;5880;52.342;9.662;2022-11-20T13:07:56;100373.91;;;6.35;65.15
11648;BME280;5880;52.342;9.662;2022-11-20T13:10:52;100379.97;;;6.37;65.04
11648;BME280;5880;52.342;9.662;2022-11-20T13:13:43;100377.88;;;6.39;65.25
11648;BME280;5880;52.342;9.662;2022-11-20T13:16:38;100382.88;;;6.42;64.61
11648;BME280;5880;52.342;9.662;2022-11-20T13:19:15;100372.84;;;6.43;65.07
11648;BME280;5880;52.342;9.662;2022-11-20T13:21:48;100378.91;;;6.45;65.13
11648;BME280;5880;52.342;9.662;2022-11-20T13:27:16;100373.66;;;6.50;64.71
11648;BME280;5880;52.342;9.662;2022-11-20T13:29:46;100371.16;;;6.48;64.72
11648;BME280;5880;52.342;9.662;2022-11-20T13:32:20;100363.63;;;6.50;64.65
11648;BME280;5880;52.342;9.662;2022-11-20T13:35:04;100363.44;;;6.52;64.51
11648;BME280;5880;52.342;9.662;2022-11-20T13:37:35;100359.88;;;6.51;64.46
11648;BME280;5880;52.342;9.662;2022-11-20T13:45:27;100352.31;;;6.60;64.85
11648;BME280;5880;52.342;9.662;2022-11-20T13:47:54;100359.84;;;6.65;65.05
11648;BME280;5880;52.342;9.662;2022-11-20T13:50:56;100359.63;;;6.66;65.12
11648;BME280;5880;52.342;9.662;2022-11-20T13:56:43;100355.25;;;6.65;64.45
11648;BME280;5880;52.342;9.662;2022-11-20T13:59:46;100360.69;;;6.65;64.81
11648;BME280;5880;52.342;9.662;2022-11-20T14:02:18;100356.28;;;6.64;64.50
11648;BME280;5880;52.342;9.662;2022-11-20T14:04:49;100352.53;;;6.65;64.45
11648;BME280;5880;52.342;9.662;2022-11-20T14:07:20;100349.81;;;6.65;64.55
11648;BME280;5880;52.342;9.662;2022-11-20T14:09:57;100348.38;;;6.63;63.92
11648;BME280;5880;52.342;9.662;2022-11-20T14:12:33;100356.91;;;6.66;64.81
11648;BME280;5880;52.342;9.662;2022-11-20T14:14:59;100350.66;;;6.66;64.61
11648;BME280;5880;52.342;9.662;2022-11-20T14:20:03;100345.22;;;6.66;64.40
11648;BME280;5880;52.342;9.662;2022-11-20T14:22:29;100331.66;;;6.59;64.00
11648;BME280;5880;52.342;9.662;2022-11-20T14:25:24;100341.69;;;6.65;64.54
11648;BME280;5880;52.342;9.662;2022-11-20T14:27:59;100338.09;;;6.65;64.44
11648;BME280;5880;52.342;9.662;2022-11-20T14:30:42;100333.28;;;6.67;63.97
11648;BME280;5880;52.342;9.662;2022-11-20T14:33:14;100337.06;;;6.66;63.94
11648;BME280;5880;52.342;9.662;2022-11-20T14:35:46;100331.66;;;6.66;64.12
11648;BME280;5880;52.342;9.662;2022-11-20T14:38:16;100325.38;;;6.65;64.53
11648;BME280;5880;52.342;9.662;2022-11-20T14:40:44;100326.41;;;6.64;63.59
11648;BME280;5880;52.342;9.662;2022-11-20T14:43:28;100324.97;;;6.62;64.00
11648;BME280;5880;52.342;9.662;2022-11-20T14:46:07;100318.53;;;6.56;63.29